sensor_id;sensor_type;location;lat;lon;timestamp;P1;durP1;ratioP1;P2;durP2;ratioP2
68608;SDS011;55581;46.718;7.690;2022-10-16T00:02:15;8.57;;;0.80;;
68608;SDS011;55581;46.718;7.690;2022-10-16T00:04:41;9.43;;;0.60;;
68608;SDS011;55581;46.718;7.690;2022-10-16T00:07:07;2.95;;;0.60;;
68608;SDS011;55581;46.718;7.690;2022-10-16T00:09:32;21.70;;;1.30;;
68608;SDS011;55581;46.718;7.690;2022-10-16T00:11:58;8.82;;;0.50;;
68608;SDS011;55581;46.718;7.690;2022-10-16T00:14:24;5.23;;;0.37;;
68608;SDS011;55581;46.718;7.690;2022-10-16T00:16:52;5.25;;;0.60;;
68608;SDS011;55581;46.718;7.690;2022-10-16T00:19:17;2.20;;;0.40;;
68608;SDS011;55581;46.718;7.690;2022-10-16T00:21:45;4.28;;;0.40;;
68608;SDS011;55581;46.718;7.690;2022-10-16T00:24:10;2.40;;;0.50;;
68608;SDS011;55581;46.718;7.690;2022-10-16T00:26:39;6.93;;;0.60;;
68608;SDS011;55581;46.718;7.690;2022-10-16T00:29:05;4.20;;;0.50;;
68608;SDS011;55581;46.718;7.690;2022-10-16T00:31:34;4.03;;;0.40;;
68608;SDS011;55581;46.718;7.690;2022-10-16T00:34:00;2.07;;;0.40;;
68608;SDS011;55581;46.718;7.690;2022-10-16T00:36:26;2.45;;;0.40;;
68608;SDS011;55581;46.718;7.690;2022-10-16T00:38:55;5.68;;;0.57;;
68608;SDS011;55581;46.718;7.690;2022-10-16T00:41:24;6.57;;;0.57;;
68608;SDS011;55581;46.718;7.690;2022-10-16T00:43:51;4.90;;;0.50;;
68608;SDS011;55581;46.718;7.690;2022-10-16T00:46:28;4.03;;;0.40;;
68608;SDS011;55581;46.718;7.690;2022-10-16T00:49:06;4.63;;;0.40;;
68608;SDS011;55581;46.718;7.690;2022-10-16T00:51:36;2.25;;;0.50;;
68608;SDS011;55581;46.718;7.690;2022-10-16T00:54:06;1.93;;;0.30;;
68608;SDS011;55581;46.718;7.690;2022-10-16T00:56:35;3.08;;;0.47;;
68608;SDS011;55581;46.718;7.690;2022-10-16T00:59:06;4.80;;;0.40;;
68608;SDS011;55581;46.718;7.690;2022-10-16T01:01:40;2.60;;;0.30;;
68608;SDS011;55581;46.718;7.690;2022-10-16T01:04:08;2.95;;;0.40;;
68608;SDS011;55581;46.718;7.690;2022-10-16T01:06:43;9.45;;;0.47;;
68608;SDS011;55581;46.718;7.690;2022-10-16T01:14:40;3.92;;;0.60;;
68608;SDS011;55581;46.718;7.690;2022-10-16T01:17:18;3.85;;;0.40;;
68608;SDS011;55581;46.718;7.690;2022-10-16T01:22:37;8.20;;;0.70;;
68608;SDS011;55581;46.718;7.690;2022-10-16T01:25:11;1.97;;;0.40;;
68608;SDS011;55581;46.718;7.690;2022-10-16T01:27:43;4.50;;;0.57;;
68608;SDS011;55581;46.718;7.690;2022-10-16T01:32:51;3.05;;;0.30;;
68608;SDS011;55581;46.718;7.690;2022-10-16T01:35:24;4.18;;;0.40;;
68608;SDS011;55581;46.718;7.690;2022-10-16T01:40:27;3.83;;;0.25;;
68608;SDS011;55581;46.718;7.690;2022-10-16T01:42:56;5.13;;;0.30;;
68608;SDS011;55581;46.718;7.690;2022-10-16T01:45:25;2.78;;;0.40;;
68608;SDS011;55581;46.718;7.690;2022-10-16T01:47:55;2.75;;;0.30;;
68608;SDS011;55581;46.718;7.690;2022-10-16T01:50:21;2.13;;;0.30;;
68608;SDS011;55581;46.718;7.690;2022-10-16T01:52:48;1.73;;;0.20;;
68608;SDS011;55581;46.718;7.690;2022-10-16T01:55:18;2.45;;;0.30;;
68608;SDS011;55581;46.718;7.690;2022-10-16T01:57:53;3.42;;;0.40;;
68608;SDS011;55581;46.718;7.690;2022-10-16T02:00:20;4.03;;;0.30;;
68608;SDS011;55581;46.718;7.690;2022-10-16T02:02:48;3.60;;;0.43;;
68608;SDS011;55581;46.718;7.690;2022-10-16T02:05:30;1.60;;;0.30;;
68608;SDS011;55581;46.718;7.690;2022-10-16T02:07:59;2.55;;;0.43;;
68608;SDS011;55581;46.718;7.690;2022-10-16T02:10:24;2.30;;;0.43;;
68608;SDS011;55581;46.718;7.690;2022-10-16T02:13:17;7.93;;;1.10;;
68608;SDS011;55581;46.718;7.690;2022-10-16T02:15:49;4.82;;;0.45;;
68608;SDS011;55581;46.718;7.690;2022-10-16T02:18:14;5.67;;;0.30;;
68608;SDS011;55581;46.718;7.690;2022-10-16T02:20:44;4.53;;;0.40;;
68608;SDS011;55581;46.718;7.690;2022-10-16T02:23:57;1.67;;;0.30;;
68608;SDS011;55581;46.718;7.690;2022-10-16T02:29:52;6.63;;;0.50;;
68608;SDS011;55581;46.718;7.690;2022-10-16T02:32:28;4.13;;;0.30;;
68608;SDS011;55581;46.718;7.690;2022-10-16T02:34:56;1.90;;;0.28;;
68608;SDS011;55581;46.718;7.690;2022-10-16T02:37:23;4.75;;;0.40;;
68608;SDS011;55581;46.718;7.690;2022-10-16T02:39:53;1.83;;;0.40;;
68608;SDS011;55581;46.718;7.690;2022-10-16T02:42:33;3.88;;;0.35;;
68608;SDS011;55581;46.718;7.690;2022-10-16T02:45:01;2.45;;;0.30;;
68608;SDS011;55581;46.718;7.690;2022-10-16T02:47:26;3.10;;;0.30;;
68608;SDS011;55581;46.718;7.690;2022-10-16T02:49:54;6.63;;;0.50;;
68608;SDS011;55581;46.718;7.690;2022-10-16T02:52:20;2.47;;;0.23;;
68608;SDS011;55581;46.718;7.690;2022-10-16T02:54:46;4.05;;;0.20;;
68608;SDS011;55581;46.718;7.690;2022-10-16T02:57:14;4.10;;;0.35;;
68608;SDS011;55581;46.718;7.690;2022-10-16T02:59:40;4.40;;;0.50;;
68608;SDS011;55581;46.718;7.690;2022-10-16T03:02:06;2.28;;;0.40;;
68608;SDS011;55581;46.718;7.690;2022-10-16T03:04:31;5.80;;;0.40;;
68608;SDS011;55581;46.718;7.690;2022-10-16T03:07:00;1.73;;;0.25;;
68608;SDS011;55581;46.718;7.690;2022-10-16T03:09:28;3.45;;;0.30;;
68608;SDS011;55581;46.718;7.690;2022-10-16T03:11:54;2.33;;;0.30;;
68608;SDS011;55581;46.718;7.690;2022-10-16T03:14:22;2.15;;;0.43;;
68608;SDS011;55581;46.718;7.690;2022-10-16T03:16:48;2.30;;;0.30;;
68608;SDS011;55581;46.718;7.690;2022-10-16T03:19:13;1.80;;;0.20;;
68608;SDS011;55581;46.718;7.690;2022-10-16T03:21:40;2.10;;;0.30;;
68608;SDS011;55581;46.718;7.690;2022-10-16T03:24:05;2.83;;;0.40;;
68608;SDS011;55581;46.718;7.690;2022-10-16T03:26:36;4.13;;;0.52;;
68608;SDS011;55581;46.718;7.690;2022-10-16T03:29:01;5.03;;;0.63;;
68608;SDS011;55581;46.718;7.690;2022-10-16T03:31:30;3.28;;;0.32;;
68608;SDS011;55581;46.718;7.690;2022-10-16T03:33:56;4.60;;;0.40;;
68608;SDS011;55581;46.718;7.690;2022-10-16T03:36:21;9.30;;;0.57;;
68608;SDS011;55581;46.718;7.690;2022-10-16T03:38:47;2.13;;;0.30;;
68608;SDS011;55581;46.718;7.690;2022-10-16T03:41:12;3.23;;;0.40;;
68608;SDS011;55581;46.718;7.690;2022-10-16T03:43:38;7.00;;;0.40;;
68608;SDS011;55581;46.718;7.690;2022-10-16T03:46:03;2.30;;;0.30;;
68608;SDS011;55581;46.718;7.690;2022-10-16T03:48:29;5.40;;;1.27;;
68608;SDS011;55581;46.718;7.690;2022-10-16T03:50:57;4.15;;;0.30;;
68608;SDS011;55581;46.718;7.690;2022-10-16T03:53:22;2.93;;;0.47;;
68608;SDS011;55581;46.718;7.690;2022-10-16T03:55:48;2.58;;;0.30;;
68608;SDS011;55581;46.718;7.690;2022-10-16T03:58:16;2.27;;;0.40;;
68608;SDS011;55581;46.718;7.690;2022-10-16T04:00:42;3.45;;;0.50;;
68608;SDS011;55581;46.718;7.690;2022-10-16T04:03:08;6.97;;;0.50;;
68608;SDS011;55581;46.718;7.690;2022-10-16T04:05:34;6.67;;;0.60;;
68608;SDS011;55581;46.718;7.690;2022-10-16T04:08:02;3.40;;;0.40;;
68608;SDS011;55581;46.718;7.690;2022-10-16T04:10:31;4.40;;;0.40;;
68608;SDS011;55581;46.718;7.690;2022-10-16T04:12:56;1.40;;;0.20;;
68608;SDS011;55581;46.718;7.690;2022-10-16T04:15:23;5.38;;;0.50;;
68608;SDS011;55581;46.718;7.690;2022-10-16T04:17:50;4.60;;;0.80;;
68608;SDS011;55581;46.718;7.690;2022-10-16T04:20:16;3.67;;;0.50;;
68608;SDS011;55581;46.718;7.690;2022-10-16T04:22:42;2.72;;;0.30;;
68608;SDS011;55581;46.718;7.690;2022-10-16T04:25:07;4.93;;;0.50;;
68608;SDS011;55581;46.718;7.690;2022-10-16T04:27:36;3.40;;;0.52;;
68608;SDS011;55581;46.718;7.690;2022-10-16T04:30:02;4.50;;;0.38;;
68608;SDS011;55581;46.718;7.690;2022-10-16T04:32:28;5.30;;;0.40;;
68608;SDS011;55581;46.718;7.690;2022-10-16T04:34:55;2.20;;;0.30;;
68608;SDS011;55581;46.718;7.690;2022-10-16T04:37:24;6.30;;;0.40;;
68608;SDS011;55581;46.718;7.690;2022-10-16T04:39:50;6.53;;;0.30;;
68608;SDS011;55581;46.718;7.690;2022-10-16T04:42:16;1.20;;;0.20;;
68608;SDS011;55581;46.718;7.690;2022-10-16T04:44:41;3.40;;;0.20;;
68608;SDS011;55581;46.718;7.690;2022-10-16T04:47:06;6.47;;;0.80;;
68608;SDS011;55581;46.718;7.690;2022-10-16T04:49:33;2.95;;;0.22;;
68608;SDS011;55581;46.718;7.690;2022-10-16T04:52:01;3.88;;;0.50;;
68608;SDS011;55581;46.718;7.690;2022-10-16T04:54:26;8.43;;;0.40;;
68608;SDS011;55581;46.718;7.690;2022-10-16T04:56:52;1.90;;;0.40;;
68608;SDS011;55581;46.718;7.690;2022-10-16T04:59:18;2.10;;;0.40;;
68608;SDS011;55581;46.718;7.690;2022-10-16T05:01:44;6.00;;;0.40;;
68608;SDS011;55581;46.718;7.690;2022-10-16T05:04:10;2.97;;;0.57;;
68608;SDS011;55581;46.718;7.690;2022-10-16T05:06:36;6.47;;;0.70;;
68608;SDS011;55581;46.718;7.690;2022-10-16T05:09:03;6.80;;;1.10;;
68608;SDS011;55581;46.718;7.690;2022-10-16T05:11:31;3.13;;;0.90;;
68608;SDS011;55581;46.718;7.690;2022-10-16T05:13:56;10.02;;;0.60;;
68608;SDS011;55581;46.718;7.690;2022-10-16T05:16:22;4.17;;;0.40;;
68608;SDS011;55581;46.718;7.690;2022-10-16T05:18:53;1.60;;;0.30;;
68608;SDS011;55581;46.718;7.690;2022-10-16T05:21:18;2.60;;;0.38;;
68608;SDS011;55581;46.718;7.690;2022-10-16T05:23:44;3.25;;;0.43;;
68608;SDS011;55581;46.718;7.690;2022-10-16T05:26:10;4.13;;;0.30;;
68608;SDS011;55581;46.718;7.690;2022-10-16T05:28:35;4.07;;;0.77;;
68608;SDS011;55581;46.718;7.690;2022-10-16T05:31:07;2.60;;;0.40;;
68608;SDS011;55581;46.718;7.690;2022-10-16T05:33:34;11.20;;;1.17;;
68608;SDS011;55581;46.718;7.690;2022-10-16T05:36:03;9.15;;;0.50;;
68608;SDS011;55581;46.718;7.690;2022-10-16T05:38:30;3.10;;;0.30;;
68608;SDS011;55581;46.718;7.690;2022-10-16T05:40:55;3.17;;;0.20;;
68608;SDS011;55581;46.718;7.690;2022-10-16T05:43:21;6.93;;;0.73;;
68608;SDS011;55581;46.718;7.690;2022-10-16T05:48:29;4.97;;;0.40;;
68608;SDS011;55581;46.718;7.690;2022-10-16T05:50:56;2.85;;;0.22;;
68608;SDS011;55581;46.718;7.690;2022-10-16T05:53:28;5.45;;;0.28;;
68608;SDS011;55581;46.718;7.690;2022-10-16T05:55:55;5.47;;;0.50;;
68608;SDS011;55581;46.718;7.690;2022-10-16T05:58:21;1.77;;;0.20;;
68608;SDS011;55581;46.718;7.690;2022-10-16T06:00:52;3.90;;;0.30;;
68608;SDS011;55581;46.718;7.690;2022-10-16T06:03:23;2.78;;;0.45;;
68608;SDS011;55581;46.718;7.690;2022-10-16T06:05:49;5.53;;;0.30;;
68608;SDS011;55581;46.718;7.690;2022-10-16T06:08:14;3.67;;;0.38;;
68608;SDS011;55581;46.718;7.690;2022-10-16T06:10:40;1.70;;;0.30;;
68608;SDS011;55581;46.718;7.690;2022-10-16T06:13:05;1.17;;;0.30;;
68608;SDS011;55581;46.718;7.690;2022-10-16T06:15:31;3.70;;;0.30;;
68608;SDS011;55581;46.718;7.690;2022-10-16T06:17:58;1.90;;;0.35;;
68608;SDS011;55581;46.718;7.690;2022-10-16T06:20:23;3.93;;;0.40;;
68608;SDS011;55581;46.718;7.690;2022-10-16T06:22:53;3.58;;;1.08;;
68608;SDS011;55581;46.718;7.690;2022-10-16T06:25:19;4.95;;;0.70;;
68608;SDS011;55581;46.718;7.690;2022-10-16T06:27:45;2.40;;;0.40;;
68608;SDS011;55581;46.718;7.690;2022-10-16T06:30:11;3.72;;;0.40;;
68608;SDS011;55581;46.718;7.690;2022-10-16T06:32:37;3.37;;;0.30;;
68608;SDS011;55581;46.718;7.690;2022-10-16T06:35:02;3.23;;;0.30;;
68608;SDS011;55581;46.718;7.690;2022-10-16T06:37:27;3.70;;;0.20;;
68608;SDS011;55581;46.718;7.690;2022-10-16T06:39:53;2.80;;;0.47;;
68608;SDS011;55581;46.718;7.690;2022-10-16T06:42:18;5.03;;;0.60;;
68608;SDS011;55581;46.718;7.690;2022-10-16T06:44:44;7.95;;;1.55;;
68608;SDS011;55581;46.718;7.690;2022-10-16T06:47:11;3.63;;;0.95;;
68608;SDS011;55581;46.718;7.690;2022-10-16T06:49:36;5.50;;;0.50;;
68608;SDS011;55581;46.718;7.690;2022-10-16T06:52:02;4.80;;;0.60;;
68608;SDS011;55581;46.718;7.690;2022-10-16T06:54:27;3.97;;;0.65;;
68608;SDS011;55581;46.718;7.690;2022-10-16T06:56:55;3.03;;;0.70;;
68608;SDS011;55581;46.718;7.690;2022-10-16T06:59:20;3.90;;;0.40;;
68608;SDS011;55581;46.718;7.690;2022-10-16T07:01:46;5.40;;;0.65;;
68608;SDS011;55581;46.718;7.690;2022-10-16T07:04:12;6.37;;;0.60;;
68608;SDS011;55581;46.718;7.690;2022-10-16T07:06:40;2.63;;;0.30;;
68608;SDS011;55581;46.718;7.690;2022-10-16T07:09:06;9.30;;;0.40;;
68608;SDS011;55581;46.718;7.690;2022-10-16T07:11:35;5.22;;;0.30;;
68608;SDS011;55581;46.718;7.690;2022-10-16T07:14:02;6.45;;;0.35;;
68608;SDS011;55581;46.718;7.690;2022-10-16T07:16:34;1.98;;;0.50;;
68608;SDS011;55581;46.718;7.690;2022-10-16T07:19:01;4.10;;;1.13;;
68608;SDS011;55581;46.718;7.690;2022-10-16T07:21:28;2.88;;;0.40;;
68608;SDS011;55581;46.718;7.690;2022-10-16T07:23:57;1.42;;;0.20;;
68608;SDS011;55581;46.718;7.690;2022-10-16T07:26:24;3.40;;;0.35;;
68608;SDS011;55581;46.718;7.690;2022-10-16T07:28:50;4.40;;;0.40;;
68608;SDS011;55581;46.718;7.690;2022-10-16T07:31:16;3.40;;;0.23;;
68608;SDS011;55581;46.718;7.690;2022-10-16T07:33:46;5.63;;;0.60;;
68608;SDS011;55581;46.718;7.690;2022-10-16T07:36:13;3.15;;;0.40;;
68608;SDS011;55581;46.718;7.690;2022-10-16T07:38:43;3.07;;;0.43;;
68608;SDS011;55581;46.718;7.690;2022-10-16T07:41:12;2.25;;;0.30;;
68608;SDS011;55581;46.718;7.690;2022-10-16T07:43:45;2.40;;;0.40;;
68608;SDS011;55581;46.718;7.690;2022-10-16T07:46:16;2.13;;;0.40;;
68608;SDS011;55581;46.718;7.690;2022-10-16T07:48:42;2.10;;;0.30;;
68608;SDS011;55581;46.718;7.690;2022-10-16T07:51:17;3.83;;;0.80;;
68608;SDS011;55581;46.718;7.690;2022-10-16T07:53:44;4.45;;;0.85;;
68608;SDS011;55581;46.718;7.690;2022-10-16T07:56:11;3.67;;;0.50;;
68608;SDS011;55581;46.718;7.690;2022-10-16T07:58:39;1.85;;;0.30;;
68608;SDS011;55581;46.718;7.690;2022-10-16T08:01:08;1.57;;;0.30;;
68608;SDS011;55581;46.718;7.690;2022-10-16T08:03:35;6.13;;;0.60;;
68608;SDS011;55581;46.718;7.690;2022-10-16T08:06:01;1.95;;;0.50;;
68608;SDS011;55581;46.718;7.690;2022-10-16T08:08:27;3.00;;;0.50;;
68608;SDS011;55581;46.718;7.690;2022-10-16T08:10:53;6.30;;;0.40;;
68608;SDS011;55581;46.718;7.690;2022-10-16T08:13:19;1.73;;;0.30;;
68608;SDS011;55581;46.718;7.690;2022-10-16T08:15:46;2.20;;;0.45;;
68608;SDS011;55581;46.718;7.690;2022-10-16T08:18:14;2.47;;;0.30;;
68608;SDS011;55581;46.718;7.690;2022-10-16T08:20:41;5.00;;;0.50;;
68608;SDS011;55581;46.718;7.690;2022-10-16T08:23:07;4.53;;;0.70;;
68608;SDS011;55581;46.718;7.690;2022-10-16T08:25:35;3.78;;;0.60;;
68608;SDS011;55581;46.718;7.690;2022-10-16T08:28:05;1.65;;;0.20;;
68608;SDS011;55581;46.718;7.690;2022-10-16T08:30:35;3.60;;;0.90;;
68608;SDS011;55581;46.718;7.690;2022-10-16T08:33:01;2.17;;;0.27;;
68608;SDS011;55581;46.718;7.690;2022-10-16T08:35:27;2.97;;;0.30;;
68608;SDS011;55581;46.718;7.690;2022-10-16T08:37:52;1.98;;;0.55;;
68608;SDS011;55581;46.718;7.690;2022-10-16T08:40:19;4.70;;;0.40;;
68608;SDS011;55581;46.718;7.690;2022-10-16T08:43:01;1.80;;;0.40;;
68608;SDS011;55581;46.718;7.690;2022-10-16T08:48:36;4.10;;;0.47;;
68608;SDS011;55581;46.718;7.690;2022-10-16T08:51:24;2.85;;;0.50;;
68608;SDS011;55581;46.718;7.690;2022-10-16T08:53:56;2.80;;;0.50;;
68608;SDS011;55581;46.718;7.690;2022-10-16T08:56:23;3.03;;;0.40;;
68608;SDS011;55581;46.718;7.690;2022-10-16T08:58:49;3.35;;;0.50;;
68608;SDS011;55581;46.718;7.690;2022-10-16T09:01:17;2.97;;;0.40;;
68608;SDS011;55581;46.718;7.690;2022-10-16T09:04:07;2.42;;;0.60;;
68608;SDS011;55581;46.718;7.690;2022-10-16T09:17:56;5.13;;;0.50;;
68608;SDS011;55581;46.718;7.690;2022-10-16T09:23:21;3.05;;;0.60;;
68608;SDS011;55581;46.718;7.690;2022-10-16T09:25:51;1.98;;;0.50;;
68608;SDS011;55581;46.718;7.690;2022-10-16T09:28:18;3.08;;;0.60;;
68608;SDS011;55581;46.718;7.690;2022-10-16T09:30:44;1.60;;;0.43;;
68608;SDS011;55581;46.718;7.690;2022-10-16T09:33:11;2.50;;;0.30;;
68608;SDS011;55581;46.718;7.690;2022-10-16T09:35:42;1.38;;;0.50;;
68608;SDS011;55581;46.718;7.690;2022-10-16T09:38:09;4.65;;;0.40;;
68608;SDS011;55581;46.718;7.690;2022-10-16T09:40:46;3.17;;;0.32;;
68608;SDS011;55581;46.718;7.690;2022-10-16T09:43:25;2.28;;;0.50;;
68608;SDS011;55581;46.718;7.690;2022-10-16T09:48:38;1.83;;;0.40;;
68608;SDS011;55581;46.718;7.690;2022-10-16T09:51:19;2.15;;;0.40;;
68608;SDS011;55581;46.718;7.690;2022-10-16T09:53:45;1.83;;;0.43;;
68608;SDS011;55581;46.718;7.690;2022-10-16T09:56:20;2.70;;;0.50;;
68608;SDS011;55581;46.718;7.690;2022-10-16T09:58:52;4.07;;;0.40;;
68608;SDS011;55581;46.718;7.690;2022-10-16T10:01:19;2.30;;;0.50;;
68608;SDS011;55581;46.718;7.690;2022-10-16T10:03:46;3.00;;;0.77;;
68608;SDS011;55581;46.718;7.690;2022-10-16T10:06:23;5.25;;;0.68;;
68608;SDS011;55581;46.718;7.690;2022-10-16T10:09:38;1.52;;;0.40;;
68608;SDS011;55581;46.718;7.690;2022-10-16T10:11:45;2.00;;;0.40;;
68608;SDS011;55581;46.718;7.690;2022-10-16T10:16:49;2.77;;;0.60;;
68608;SDS011;55581;46.718;7.690;2022-10-16T10:19:17;2.20;;;0.50;;
68608;SDS011;55581;46.718;7.690;2022-10-16T10:21:47;2.38;;;0.50;;
68608;SDS011;55581;46.718;7.690;2022-10-16T10:24:16;3.70;;;0.40;;
68608;SDS011;55581;46.718;7.690;2022-10-16T10:26:59;6.55;;;0.60;;
68608;SDS011;55581;46.718;7.690;2022-10-16T10:29:42;2.80;;;0.67;;
68608;SDS011;55581;46.718;7.690;2022-10-16T10:33:09;2.60;;;0.43;;
68608;SDS011;55581;46.718;7.690;2022-10-16T10:45:44;2.78;;;0.50;;
68608;SDS011;55581;46.718;7.690;2022-10-16T10:48:24;4.60;;;0.90;;
68608;SDS011;55581;46.718;7.690;2022-10-16T10:56:57;1.73;;;0.57;;
68608;SDS011;55581;46.718;7.690;2022-10-16T11:03:19;1.73;;;0.40;;
68608;SDS011;55581;46.718;7.690;2022-10-16T11:13:25;1.40;;;0.35;;
68608;SDS011;55581;46.718;7.690;2022-10-16T11:15:57;2.72;;;0.63;;
68608;SDS011;55581;46.718;7.690;2022-10-16T11:21:13;2.50;;;0.75;;
68608;SDS011;55581;46.718;7.690;2022-10-16T11:26:29;2.22;;;0.70;;
68608;SDS011;55581;46.718;7.690;2022-10-16T11:28:59;4.55;;;0.90;;
68608;SDS011;55581;46.718;7.690;2022-10-16T11:34:02;2.22;;;0.60;;
68608;SDS011;55581;46.718;7.690;2022-10-16T11:36:44;2.10;;;0.57;;
68608;SDS011;55581;46.718;7.690;2022-10-16T11:39:22;2.55;;;0.60;;
68608;SDS011;55581;46.718;7.690;2022-10-16T11:47:16;3.58;;;1.00;;
68608;SDS011;55581;46.718;7.690;2022-10-16T11:49:52;6.43;;;1.27;;
68608;SDS011;55581;46.718;7.690;2022-10-16T11:52:25;2.40;;;0.65;;
68608;SDS011;55581;46.718;7.690;2022-10-16T11:55:01;2.78;;;0.68;;
68608;SDS011;55581;46.718;7.690;2022-10-16T11:57:36;4.40;;;0.70;;
68608;SDS011;55581;46.718;7.690;2022-10-16T12:00:08;2.80;;;0.88;;
68608;SDS011;55581;46.718;7.690;2022-10-16T12:08:15;2.85;;;0.80;;
68608;SDS011;55581;46.718;7.690;2022-10-16T12:10:43;3.70;;;1.08;;
68608;SDS011;55581;46.718;7.690;2022-10-16T12:13:44;4.68;;;0.90;;
68608;SDS011;55581;46.718;7.690;2022-10-16T12:16:04;2.47;;;0.80;;
68608;SDS011;55581;46.718;7.690;2022-10-16T12:18:39;5.40;;;0.95;;
68608;SDS011;55581;46.718;7.690;2022-10-16T12:21:09;3.17;;;0.70;;
68608;SDS011;55581;46.718;7.690;2022-10-16T12:24:00;3.95;;;1.00;;
68608;SDS011;55581;46.718;7.690;2022-10-16T12:26:32;2.40;;;0.80;;
68608;SDS011;55581;46.718;7.690;2022-10-16T12:32:02;1.77;;;0.60;;
68608;SDS011;55581;46.718;7.690;2022-10-16T12:34:40;1.73;;;0.70;;
68608;SDS011;55581;46.718;7.690;2022-10-16T12:37:28;1.90;;;0.60;;
68608;SDS011;55581;46.718;7.690;2022-10-16T12:39:56;2.53;;;0.80;;
68608;SDS011;55581;46.718;7.690;2022-10-16T12:44:52;2.20;;;0.70;;
68608;SDS011;55581;46.718;7.690;2022-10-16T12:47:19;1.70;;;0.60;;
68608;SDS011;55581;46.718;7.690;2022-10-16T12:50:00;2.10;;;0.65;;
68608;SDS011;55581;46.718;7.690;2022-10-16T12:54:50;2.13;;;0.70;;
68608;SDS011;55581;46.718;7.690;2022-10-16T13:06:07;4.47;;;1.00;;
68608;SDS011;55581;46.718;7.690;2022-10-16T13:12:19;2.10;;;0.70;;
68608;SDS011;55581;46.718;7.690;2022-10-16T13:26:31;2.17;;;0.80;;
68608;SDS011;55581;46.718;7.690;2022-10-16T13:29:08;3.03;;;0.90;;
68608;SDS011;55581;46.718;7.690;2022-10-16T13:31:36;6.25;;;1.60;;
68608;SDS011;55581;46.718;7.690;2022-10-16T13:34:03;3.40;;;0.88;;
68608;SDS011;55581;46.718;7.690;2022-10-16T13:36:34;2.00;;;0.77;;
68608;SDS011;55581;46.718;7.690;2022-10-16T13:41:38;2.63;;;0.80;;
68608;SDS011;55581;46.718;7.690;2022-10-16T13:44:05;2.35;;;0.93;;
68608;SDS011;55581;46.718;7.690;2022-10-16T13:46:42;2.40;;;0.80;;
68608;SDS011;55581;46.718;7.690;2022-10-16T13:49:14;3.40;;;0.90;;
68608;SDS011;55581;46.718;7.690;2022-10-16T13:51:41;2.72;;;1.10;;
68608;SDS011;55581;46.718;7.690;2022-10-16T13:54:18;3.13;;;1.10;;
68608;SDS011;55581;46.718;7.690;2022-10-16T13:56:47;3.83;;;1.25;;
68608;SDS011;55581;46.718;7.690;2022-10-16T14:01:50;2.00;;;0.75;;
68608;SDS011;55581;46.718;7.690;2022-10-16T14:04:19;2.78;;;1.20;;
68608;SDS011;55581;46.718;7.690;2022-10-16T14:06:49;2.30;;;0.73;;
68608;SDS011;55581;46.718;7.690;2022-10-16T14:11:51;1.75;;;0.73;;
68608;SDS011;55581;46.718;7.690;2022-10-16T14:14:23;2.17;;;1.00;;
68608;SDS011;55581;46.718;7.690;2022-10-16T14:16:50;2.80;;;1.00;;
68608;SDS011;55581;46.718;7.690;2022-10-16T14:19:22;5.23;;;0.83;;
68608;SDS011;55581;46.718;7.690;2022-10-16T14:21:51;3.17;;;0.88;;
68608;SDS011;55581;46.718;7.690;2022-10-16T14:24:27;3.00;;;1.10;;
68608;SDS011;55581;46.718;7.690;2022-10-16T14:27:20;4.83;;;1.33;;
68608;SDS011;55581;46.718;7.690;2022-10-16T14:30:03;3.25;;;1.05;;
68608;SDS011;55581;46.718;7.690;2022-10-16T14:32:52;3.92;;;1.17;;
68608;SDS011;55581;46.718;7.690;2022-10-16T14:35:25;3.97;;;0.95;;
68608;SDS011;55581;46.718;7.690;2022-10-16T14:37:56;4.53;;;1.10;;
68608;SDS011;55581;46.718;7.690;2022-10-16T14:40:23;2.30;;;0.87;;
68608;SDS011;55581;46.718;7.690;2022-10-16T14:43:14;2.55;;;1.00;;
68608;SDS011;55581;46.718;7.690;2022-10-16T14:46:01;3.97;;;1.13;;
68608;SDS011;55581;46.718;7.690;2022-10-16T14:48:29;2.92;;;1.13;;
68608;SDS011;55581;46.718;7.690;2022-10-16T14:50:55;2.67;;;0.97;;
68608;SDS011;55581;46.718;7.690;2022-10-16T14:53:20;4.82;;;1.35;;
68608;SDS011;55581;46.718;7.690;2022-10-16T14:55:46;3.87;;;1.20;;
68608;SDS011;55581;46.718;7.690;2022-10-16T14:58:16;3.08;;;1.17;;
68608;SDS011;55581;46.718;7.690;2022-10-16T15:00:47;1.90;;;0.70;;
68608;SDS011;55581;46.718;7.690;2022-10-16T15:03:13;2.47;;;0.82;;
68608;SDS011;55581;46.718;7.690;2022-10-16T15:05:42;1.97;;;0.67;;
68608;SDS011;55581;46.718;7.690;2022-10-16T15:08:07;7.22;;;1.00;;
68608;SDS011;55581;46.718;7.690;2022-10-16T15:10:35;2.47;;;0.97;;
68608;SDS011;55581;46.718;7.690;2022-10-16T15:13:04;4.75;;;0.80;;
68608;SDS011;55581;46.718;7.690;2022-10-16T15:15:34;1.90;;;0.80;;
68608;SDS011;55581;46.718;7.690;2022-10-16T15:18:00;2.70;;;0.90;;
68608;SDS011;55581;46.718;7.690;2022-10-16T15:20:28;2.37;;;0.60;;
68608;SDS011;55581;46.718;7.690;2022-10-16T15:22:56;1.92;;;0.60;;
68608;SDS011;55581;46.718;7.690;2022-10-16T15:25:30;4.50;;;1.42;;
68608;SDS011;55581;46.718;7.690;2022-10-16T15:27:59;3.40;;;0.80;;
68608;SDS011;55581;46.718;7.690;2022-10-16T15:30:26;3.25;;;0.80;;
68608;SDS011;55581;46.718;7.690;2022-10-16T15:32:52;2.77;;;0.87;;
68608;SDS011;55581;46.718;7.690;2022-10-16T15:35:17;5.18;;;0.95;;
68608;SDS011;55581;46.718;7.690;2022-10-16T15:37:43;2.77;;;0.67;;
68608;SDS011;55581;46.718;7.690;2022-10-16T15:40:12;2.20;;;0.70;;
68608;SDS011;55581;46.718;7.690;2022-10-16T15:42:37;2.00;;;0.68;;
68608;SDS011;55581;46.718;7.690;2022-10-16T15:45:03;3.57;;;0.73;;
68608;SDS011;55581;46.718;7.690;2022-10-16T15:47:29;5.05;;;0.90;;
68608;SDS011;55581;46.718;7.690;2022-10-16T15:49:54;4.07;;;1.23;;
68608;SDS011;55581;46.718;7.690;2022-10-16T15:52:20;4.37;;;1.47;;
68608;SDS011;55581;46.718;7.690;2022-10-16T15:54:45;3.00;;;1.00;;
68608;SDS011;55581;46.718;7.690;2022-10-16T15:57:10;3.13;;;1.00;;
68608;SDS011;55581;46.718;7.690;2022-10-16T15:59:36;3.47;;;0.80;;
68608;SDS011;55581;46.718;7.690;2022-10-16T16:02:01;6.13;;;0.83;;
68608;SDS011;55581;46.718;7.690;2022-10-16T16:04:29;7.07;;;0.90;;
68608;SDS011;55581;46.718;7.690;2022-10-16T16:06:55;9.93;;;1.48;;
68608;SDS011;55581;46.718;7.690;2022-10-16T16:09:21;7.63;;;1.30;;
68608;SDS011;55581;46.718;7.690;2022-10-16T16:11:46;7.43;;;1.10;;
68608;SDS011;55581;46.718;7.690;2022-10-16T16:14:12;5.43;;;0.80;;
68608;SDS011;55581;46.718;7.690;2022-10-16T16:16:38;5.65;;;1.15;;
68608;SDS011;55581;46.718;7.690;2022-10-16T16:19:04;3.57;;;0.73;;
68608;SDS011;55581;46.718;7.690;2022-10-16T16:21:32;8.23;;;0.90;;
68608;SDS011;55581;46.718;7.690;2022-10-16T16:24:00;3.72;;;0.88;;
68608;SDS011;55581;46.718;7.690;2022-10-16T16:26:32;5.85;;;0.88;;
68608;SDS011;55581;46.718;7.690;2022-10-16T16:29:01;6.13;;;0.80;;
68608;SDS011;55581;46.718;7.690;2022-10-16T16:31:28;2.70;;;0.80;;
68608;SDS011;55581;46.718;7.690;2022-10-16T16:33:57;4.35;;;1.08;;
68608;SDS011;55581;46.718;7.690;2022-10-16T16:36:23;6.22;;;1.00;;
68608;SDS011;55581;46.718;7.690;2022-10-16T16:38:50;9.05;;;0.90;;
68608;SDS011;55581;46.718;7.690;2022-10-16T16:41:17;7.63;;;1.02;;
68608;SDS011;55581;46.718;7.690;2022-10-16T16:43:46;3.30;;;1.40;;
68608;SDS011;55581;46.718;7.690;2022-10-16T16:46:16;6.85;;;0.82;;
68608;SDS011;55581;46.718;7.690;2022-10-16T16:48:42;5.20;;;0.82;;
68608;SDS011;55581;46.718;7.690;2022-10-16T16:51:15;4.83;;;0.70;;
68608;SDS011;55581;46.718;7.690;2022-10-16T16:53:43;4.33;;;1.00;;
68608;SDS011;55581;46.718;7.690;2022-10-16T16:56:10;3.40;;;1.05;;
68608;SDS011;55581;46.718;7.690;2022-10-16T16:58:36;4.33;;;1.27;;
68608;SDS011;55581;46.718;7.690;2022-10-16T17:01:02;4.00;;;0.80;;
68608;SDS011;55581;46.718;7.690;2022-10-16T17:03:28;7.93;;;0.90;;
68608;SDS011;55581;46.718;7.690;2022-10-16T17:05:59;6.20;;;0.80;;
68608;SDS011;55581;46.718;7.690;2022-10-16T17:08:32;10.52;;;0.85;;
68608;SDS011;55581;46.718;7.690;2022-10-16T17:11:00;3.13;;;0.90;;